• Join FlightAware (Why Join?)
  • Login
  • US Flag 
02:46PM EDT


 

Airport Tracker/Info


-or-


 

Live Flight TrackerFlight Track Log ✈ N1250V ✈ 02-Oct-2013 ✈ KLUK - KLUK

Flight Track Log - Related Links

Times and Time Zones

All times are in EDT time to prevent confusion due to time zone crossing. See the N1250V flight status page for this flight to view local times or setup timezone preferences in your user account.

Time Position Orientation Groundspeed Altitude Reporting Facility
EDT Latitude Longitude Course Direction KTS MPH feet Rate Location/Type
09:46AM 39.0833 -84.4167 111° Southeast 146 168 1,200  Level Cincinnati TRACON
09:47AM 39.0333 -84.4333 195° South 211 243 2,400 1,500 Climbing Cincinnati TRACON
09:48AM 39.0000 -84.4000 142° Southeast 223 257 4,100 2,040 Climbing Cincinnati TRACON
09:49AM 38.9956 -84.3444 96° East 210 242 6,100 2,400 Climbing Indianapolis Center
09:50AM 39.0425 -84.3117 28° Northeast 218 251 8,600 2,100 Climbing Indianapolis Center
09:51AM 39.1025 -84.3142 358° North 215 247 10,500 1,740 Climbing Indianapolis Center
09:52AM 39.1033 -84.4186 111° Southeast  Level Estimated
09:52AM 39.1792 -84.3222 355° North 243 280 12,200  Level Indianapolis Center
09:53AM 39.2403 -84.3264 357° North 254 292 13,700 1,500 Climbing Indianapolis Center
09:54AM 39.3267 -84.3333 356° North 259 298 15,400 1,500 Climbing Indianapolis Center
09:55AM 39.4000 -84.3408 355° North 263 303 16,800 720 Climbing Indianapolis Center
09:56AM 39.4792 -84.3475 356° North 279 321 17,000 60 Climbing Indianapolis Center
09:57AM 39.5658 -84.3558 356° North 306 352 17,000  Level Indianapolis Center
09:58AM 39.6567 -84.3636 356° North 323 372 17,000  Level Indianapolis Center
09:59AM 39.7675 -84.3553 North 343 395 17,000  Level Indianapolis Center
10:00AM 39.8308 -84.2631 48° Northeast 348 400 17,000  Level Indianapolis Center
10:01AM 39.8628 -84.1450 71° East 350 403 17,000  Level Indianapolis Center
10:02AM 39.8822 -84.0250 78° East 341 392 17,000 -300 Level Indianapolis Center
10:03AM 39.8883 -83.9014 86° East 348 400 16,400 -1,380 Descending Indianapolis Center
10:04AM 39.8250 -83.7936 127° Southeast 345 397 14,200 -1,980 Descending Indianapolis Center
10:05AM 39.7494 -83.7803 172° South 294 338 12,400 -1,500 Descending Indianapolis Center
10:06AM 39.6869 -83.8481 220° Southwest 291 335 11,100 -720 Descending Indianapolis Center
10:07AM 39.6242 -83.9122 218° Southwest 283 326 11,000 -60 Descending Indianapolis Center
10:08AM 39.5672 -83.9736 220° Southwest 274 315 11,000 -240 Level Indianapolis Center
10:10AM 39.5081 -84.0333 218° Southwest 269 310 10,600 -780 Descending Indianapolis Center
10:11AM 39.4411 -84.1236 226° Southwest 287 330 9,400 -1,440 Descending Indianapolis Center
10:12AM 39.4011 -84.2069 238° Southwest 279 321 7,700 -1,500 Descending Indianapolis Center
10:13AM 39.3689 -84.2869 243° Southwest 270 311 6,400 -1,260 Descending Indianapolis Center
10:14AM 39.3717 -84.3639 273° West 231 266 5,100 -960 Descending Indianapolis Center
10:16AM 39.2500 -84.3500 175° South 166 191 3,000 -780 Descending Cincinnati TRACON
10:17AM 39.2000 -84.3667 194° South 164 189 2,500 -600 Descending Cincinnati TRACON
10:18AM 39.1833 -84.3667 180° South 124 143 2,000 -780 Descending Cincinnati TRACON
10:19AM 39.1500 -84.4000 218° Southwest 128 147 1,200 -780 Descending Cincinnati TRACON
10:21AM 39.1033 -84.4186 218° Southwest  Level Estimated